Time;durP1;ratioP1;P1;durP2;ratioP2;P2;SDS_P1;SDS_P2;PMS_P1;PMS_P2;Temp;Humidity;BMP_temperature;BMP_pressure;BME280_temperature;BME280_humidity;BME280_pressure;Samples;Min_cycle;Max_cycle;Signal;HPM_P1;HPM_P2
2022/04/15 00:01:12;;;;;;;11.80;6.80;;;;;;;;;;5025066;22;20435;-82
2022/04/15 00:03:41;;;;;;;6.78;5.60;;;;;;;;;;5018535;28;20867;-82
2022/04/15 00:06:08;;;;;;;6.22;5.63;;;;;;;;;;5016331;28;20433;-82
2022/04/15 00:08:35;;;;;;;7.30;6.13;;;;;;;;;;5016804;28;20617;-83
2022/04/15 00:11:02;;;;;;;7.97;6.05;;;;;;;;;;5015397;28;20841;-82
2022/04/15 00:13:29;;;;;;;8.93;6.30;;;;;;;;;;5020077;28;20937;-84
2022/04/15 00:15:56;;;;;;;8.27;5.47;;;;;;;;;;5016083;28;20803;-83
2022/04/15 00:18:22;;;;;;;6.47;5.40;;;;;;;;;;5018705;28;20452;-82
2022/04/15 00:20:49;;;;;;;8.55;5.60;;;;;;;;;;5016009;28;20487;-85
2022/04/15 00:23:18;;;;;;;8.07;5.75;;;;;;;;;;5019422;28;20457;-83
2022/04/15 00:25:44;;;;;;;10.15;5.47;;;;;;;;;;5017887;28;20468;-84
2022/04/15 00:28:10;;;;;;;6.45;5.75;;;;;;;;;;5016108;28;20423;-82
2022/04/15 00:30:36;;;;;;;7.75;6.05;;;;;;;;;;5016513;28;20842;-80
2022/04/15 00:33:03;;;;;;;7.97;6.50;;;;;;;;;;5013850;28;20439;-82
2022/04/15 00:35:29;;;;;;;9.02;6.57;;;;;;;;;;5015927;28;20431;-83
2022/04/15 00:37:57;;;;;;;7.80;6.57;;;;;;;;;;5018890;28;20426;-82
2022/04/15 00:40:23;;;;;;;7.47;6.07;;;;;;;;;;5015736;28;20518;-82
2022/04/15 00:42:49;;;;;;;9.52;6.40;;;;;;;;;;5015761;28;20438;-83
2022/04/15 00:45:15;;;;;;;6.73;6.03;;;;;;;;;;5016476;28;20852;-83
2022/04/15 00:47:46;;;;;;;9.88;5.97;;;;;;;;;;5017003;28;20492;-82
2022/04/15 00:50:13;;;;;;;8.25;6.00;;;;;;;;;;5015746;28;21427;-82
2022/04/15 00:52:40;;;;;;;7.55;6.25;;;;;;;;;;5017790;28;20477;-84
2022/04/15 00:55:08;;;;;;;8.38;6.40;;;;;;;;;;5017259;28;20432;-82
2022/04/15 00:57:36;;;;;;;8.15;6.18;;;;;;;;;;5020653;28;20503;-84
2022/04/15 01:00:05;;;;;;;7.97;6.18;;;;;;;;;;5015154;28;20520;-82
2022/04/15 01:02:33;;;;;;;7.63;6.55;;;;;;;;;;5014579;28;20462;-82
2022/04/15 01:04:59;;;;;;;8.55;6.78;;;;;;;;;;5016136;28;20990;-83
2022/04/15 01:07:26;;;;;;;11.30;6.75;;;;;;;;;;5016494;28;20437;-83
2022/04/15 01:09:53;;;;;;;12.50;7.60;;;;;;;;;;5016320;28;20534;-82
2022/04/15 01:12:22;;;;;;;15.77;11.90;;;;;;;;;;5018442;28;20455;-81
2022/04/15 01:14:49;;;;;;;16.50;13.30;;;;;;;;;;5017623;28;20502;-81
2022/04/15 01:17:15;;;;;;;21.40;14.90;;;;;;;;;;5014281;28;20427;-83
2022/04/15 01:19:42;;;;;;;23.57;16.03;;;;;;;;;;5016074;28;20982;-83
2022/04/15 01:22:09;;;;;;;20.33;14.40;;;;;;;;;;5014966;28;20795;-85
2022/04/15 01:24:38;;;;;;;18.70;14.98;;;;;;;;;;5019089;28;20485;-81
2022/04/15 01:27:04;;;;;;;20.80;16.00;;;;;;;;;;5019077;28;20424;-83
2022/04/15 01:29:36;;;;;;;22.00;15.80;;;;;;;;;;5017922;28;20436;-83
2022/04/15 01:32:03;;;;;;;21.75;15.68;;;;;;;;;;5017144;28;20715;-81
2022/04/15 01:34:30;;;;;;;20.60;14.07;;;;;;;;;;5017783;28;20844;-82
2022/04/15 01:36:56;;;;;;;18.20;13.13;;;;;;;;;;5016734;28;20430;-82
2022/04/15 01:39:22;;;;;;;18.88;12.85;;;;;;;;;;5021269;28;20407;-82
2022/04/15 01:41:50;;;;;;;17.75;13.27;;;;;;;;;;5020316;28;20478;-81
2022/04/15 01:44:17;;;;;;;13.33;11.20;;;;;;;;;;5018880;28;20469;-81
2022/04/15 01:46:44;;;;;;;15.07;11.27;;;;;;;;;;5013648;28;20432;-82
2022/04/15 01:49:10;;;;;;;13.40;9.68;;;;;;;;;;5016439;28;20504;-84
2022/04/15 01:51:36;;;;;;;13.83;10.73;;;;;;;;;;5017337;28;20536;-84
2022/04/15 01:54:03;;;;;;;11.25;8.55;;;;;;;;;;5014711;28;20487;-81
2022/04/15 01:56:29;;;;;;;9.00;8.10;;;;;;;;;;5014300;28;20431;-82
2022/04/15 01:58:57;;;;;;;11.93;9.00;;;;;;;;;;5019382;28;20440;-84
2022/04/15 02:01:23;;;;;;;10.60;8.02;;;;;;;;;;5015150;28;20437;-82
2022/04/15 02:03:49;;;;;;;8.90;7.55;;;;;;;;;;5018206;28;20495;-83
2022/04/15 02:06:15;;;;;;;11.38;7.78;;;;;;;;;;5017506;28;20480;-83
2022/04/15 02:08:42;;;;;;;10.57;8.23;;;;;;;;;;5018027;28;20494;-82
2022/04/15 02:11:08;;;;;;;13.67;8.40;;;;;;;;;;5017119;28;20941;-82
2022/04/15 02:13:34;;;;;;;11.48;8.60;;;;;;;;;;5016817;28;20924;-83
2022/04/15 02:16:01;;;;;;;10.57;8.45;;;;;;;;;;5020475;28;20413;-82
2022/04/15 02:18:28;;;;;;;11.73;9.20;;;;;;;;;;5017804;28;20487;-84
2022/04/15 02:20:54;;;;;;;12.93;9.93;;;;;;;;;;5020306;28;20481;-82
2022/04/15 02:23:20;;;;;;;12.90;9.80;;;;;;;;;;5018116;28;20428;-82
2022/04/15 02:25:46;;;;;;;13.18;11.57;;;;;;;;;;5023044;28;20957;-83
2022/04/15 02:28:13;;;;;;;14.85;10.32;;;;;;;;;;5022844;28;20428;-83
2022/04/15 02:30:39;;;;;;;13.45;10.63;;;;;;;;;;5021949;28;20434;-85
2022/04/15 02:33:06;;;;;;;14.97;10.37;;;;;;;;;;5019186;28;20905;-85
2022/04/15 02:35:33;;;;;;;12.73;10.82;;;;;;;;;;5022001;28;20477;-84
2022/04/15 02:37:59;;;;;;;16.15;11.45;;;;;;;;;;5018922;28;20423;-82
2022/04/15 02:40:25;;;;;;;15.18;12.10;;;;;;;;;;5019726;28;21524;-84
2022/04/15 02:42:52;;;;;;;15.25;12.73;;;;;;;;;;5022766;28;20478;-84
2022/04/15 02:45:18;;;;;;;16.38;11.20;;;;;;;;;;5021685;28;20436;-84
2022/04/15 02:47:44;;;;;;;15.20;11.70;;;;;;;;;;5020751;28;20437;-80
2022/04/15 02:50:12;;;;;;;14.50;10.80;;;;;;;;;;5021341;28;20431;-84
2022/04/15 02:52:38;;;;;;;15.50;10.60;;;;;;;;;;5021854;28;20417;-82
2022/04/15 02:55:05;;;;;;;14.93;10.57;;;;;;;;;;5023070;28;20951;-82
2022/04/15 02:57:31;;;;;;;10.77;9.57;;;;;;;;;;5021459;28;20805;-86
2022/04/15 02:59:58;;;;;;;12.15;10.13;;;;;;;;;;5022712;28;20427;-85
2022/04/15 03:02:24;;;;;;;14.50;9.45;;;;;;;;;;5016102;28;20973;-82
2022/04/15 03:04:51;;;;;;;10.57;8.60;;;;;;;;;;5020043;28;20440;-83
2022/04/15 03:07:19;;;;;;;12.20;9.10;;;;;;;;;;5020169;28;20432;-83
2022/04/15 03:09:45;;;;;;;11.25;8.68;;;;;;;;;;5023408;28;20518;-85
2022/04/15 03:12:11;;;;;;;11.23;8.73;;;;;;;;;;5023039;28;20989;-82
2022/04/15 03:14:37;;;;;;;12.70;7.57;;;;;;;;;;5018905;28;20873;-82
2022/04/15 03:17:05;;;;;;;12.40;8.00;;;;;;;;;;5016168;28;20441;-83
2022/04/15 03:19:31;;;;;;;13.07;9.40;;;;;;;;;;5015858;28;20439;-82
2022/04/15 03:21:57;;;;;;;11.10;7.78;;;;;;;;;;5014816;28;21155;-82
2022/04/15 03:24:25;;;;;;;12.52;8.57;;;;;;;;;;5020307;28;20441;-83
2022/04/15 03:26:51;;;;;;;10.43;7.95;;;;;;;;;;5019425;28;20411;-82
2022/04/15 03:29:17;;;;;;;9.40;8.00;;;;;;;;;;5014868;28;20459;-82
2022/04/15 03:31:43;;;;;;;9.48;8.20;;;;;;;;;;5014409;28;20432;-83
2022/04/15 03:34:10;;;;;;;12.07;8.40;;;;;;;;;;5014539;28;20673;-82
2022/04/15 03:36:36;;;;;;;12.10;8.90;;;;;;;;;;5018224;28;20536;-82
2022/04/15 03:39:02;;;;;;;13.05;9.57;;;;;;;;;;5014392;28;20504;-81
2022/04/15 03:41:30;;;;;;;14.57;10.40;;;;;;;;;;5019060;28;20431;-81
2022/04/15 03:43:56;;;;;;;13.95;10.40;;;;;;;;;;5019125;28;21002;-83
2022/04/15 03:46:22;;;;;;;15.07;10.70;;;;;;;;;;5018884;28;20484;-81
2022/04/15 03:48:48;;;;;;;13.55;10.90;;;;;;;;;;5019104;28;20436;-82
2022/04/15 03:51:15;;;;;;;13.25;11.65;;;;;;;;;;5018011;28;20720;-82
2022/04/15 03:53:41;;;;;;;16.40;11.80;;;;;;;;;;5018838;28;20481;-82
2022/04/15 03:56:07;;;;;;;17.45;12.57;;;;;;;;;;5013953;28;20433;-82
2022/04/15 03:58:35;;;;;;;16.52;12.32;;;;;;;;;;5015431;28;20433;-81
2022/04/15 04:01:02;;;;;;;17.85;12.85;;;;;;;;;;5012051;28;20848;-82
2022/04/15 04:03:28;;;;;;;17.57;11.97;;;;;;;;;;5012317;28;20427;-82
2022/04/15 04:05:54;;;;;;;17.45;12.40;;;;;;;;;;5016996;28;20436;-84
2022/04/15 04:08:20;;;;;;;14.70;11.93;;;;;;;;;;5018858;28;20526;-83
2022/04/15 04:10:46;;;;;;;15.85;12.50;;;;;;;;;;5015914;28;20440;-81
2022/04/15 04:13:13;;;;;;;17.20;12.30;;;;;;;;;;5018152;28;20460;-83
2022/04/15 04:15:40;;;;;;;16.60;12.10;;;;;;;;;;5017652;28;20436;-84
2022/04/15 04:18:06;;;;;;;19.05;13.07;;;;;;;;;;5014431;28;20437;-84
2022/04/15 04:20:33;;;;;;;17.92;12.10;;;;;;;;;;5017159;28;20485;-84
2022/04/15 04:22:59;;;;;;;17.90;11.27;;;;;;;;;;5018612;28;20463;-83
2022/04/15 04:25:25;;;;;;;18.88;11.50;;;;;;;;;;5011292;28;20530;-82
2022/04/15 04:27:52;;;;;;;15.65;10.70;;;;;;;;;;5013183;28;20431;-83
2022/04/15 04:30:18;;;;;;;14.75;10.90;;;;;;;;;;5010810;28;20436;-84
2022/04/15 04:32:50;;;;;;;18.10;11.30;;;;;;;;;;5008144;28;20434;-82
2022/04/15 04:35:17;;;;;;;17.13;11.57;;;;;;;;;;5012160;28;20447;-82
2022/04/15 04:37:44;;;;;;;15.63;11.50;;;;;;;;;;5009766;28;20436;-82
2022/04/15 04:40:10;;;;;;;17.05;11.73;;;;;;;;;;5018316;28;20427;-84
2022/04/15 04:42:36;;;;;;;17.48;11.75;;;;;;;;;;5013998;28;20844;-84
2022/04/15 04:45:03;;;;;;;14.55;11.20;;;;;;;;;;5017060;28;20440;-83
2022/04/15 04:47:30;;;;;;;15.43;10.73;;;;;;;;;;5017467;28;20425;-84
2022/04/15 04:49:57;;;;;;;13.90;11.00;;;;;;;;;;5015548;28;20477;-84
2022/04/15 04:52:24;;;;;;;15.88;10.48;;;;;;;;;;5014830;28;20433;-82
2022/04/15 04:54:50;;;;;;;15.57;11.50;;;;;;;;;;5014391;28;20777;-84
2022/04/15 04:57:16;;;;;;;17.40;11.27;;;;;;;;;;5019623;28;21008;-85
2022/04/15 04:59:42;;;;;;;18.13;11.68;;;;;;;;;;5013805;28;20928;-84
2022/04/15 05:02:10;;;;;;;17.15;11.55;;;;;;;;;;5015671;28;20981;-83
2022/04/15 05:04:36;;;;;;;16.20;11.95;;;;;;;;;;5015718;28;20458;-83
2022/04/15 05:07:04;;;;;;;16.95;13.32;;;;;;;;;;5016682;28;20412;-85
2022/04/15 05:09:30;;;;;;;18.35;12.35;;;;;;;;;;5018029;28;20436;-83
2022/04/15 05:11:56;;;;;;;20.27;12.95;;;;;;;;;;5013903;28;20425;-83
2022/04/15 05:14:23;;;;;;;21.23;13.75;;;;;;;;;;5014772;28;20940;-83
2022/04/15 05:16:49;;;;;;;20.38;14.32;;;;;;;;;;5016911;28;20412;-84
2022/04/15 05:19:15;;;;;;;20.67;14.77;;;;;;;;;;5015193;28;20938;-84
2022/04/15 05:21:41;;;;;;;21.97;14.90;;;;;;;;;;5017307;28;20411;-83
2022/04/15 05:24:10;;;;;;;24.90;14.80;;;;;;;;;;5014967;28;20820;-84
2022/04/15 05:26:36;;;;;;;22.25;16.00;;;;;;;;;;5015119;28;20405;-83
2022/04/15 05:29:03;;;;;;;25.70;16.70;;;;;;;;;;5016531;28;20435;-83
2022/04/15 05:31:29;;;;;;;21.27;14.80;;;;;;;;;;5015532;28;20953;-83
2022/04/15 05:33:55;;;;;;;23.75;15.32;;;;;;;;;;5019873;28;20434;-83
2022/04/15 05:36:22;;;;;;;28.50;16.85;;;;;;;;;;5016033;28;20850;-85
2022/04/15 05:38:48;;;;;;;28.13;16.75;;;;;;;;;;5016981;28;20871;-84
2022/04/15 05:41:15;;;;;;;26.08;17.27;;;;;;;;;;5019244;28;20469;-84
2022/04/15 05:43:43;;;;;;;28.45;17.83;;;;;;;;;;5017642;28;20491;-84
2022/04/15 05:46:09;;;;;;;29.00;18.90;;;;;;;;;;5016568;28;20431;-84
2022/04/15 05:48:35;;;;;;;29.67;18.00;;;;;;;;;;5016657;28;20549;-84
2022/04/15 05:51:01;;;;;;;32.30;19.50;;;;;;;;;;5016084;28;20427;-82
2022/04/15 05:53:27;;;;;;;35.15;19.85;;;;;;;;;;5014589;28;20440;-83
2022/04/15 05:55:54;;;;;;;34.80;20.42;;;;;;;;;;5010381;28;21512;-83
2022/04/15 05:58:21;;;;;;;35.08;21.20;;;;;;;;;;5016417;28;20488;-83
2022/04/15 06:00:47;;;;;;;35.05;21.25;;;;;;;;;;5032878;22;20785;-78
2022/04/15 06:03:14;;;;;;;35.67;20.85;;;;;;;;;;5020897;28;20427;-77
2022/04/15 06:05:40;;;;;;;31.80;20.17;;;;;;;;;;5021604;28;20433;-78
2022/04/15 06:08:06;;;;;;;31.67;19.60;;;;;;;;;;5021303;28;20415;-79
2022/04/15 06:10:33;;;;;;;29.10;19.02;;;;;;;;;;5018023;28;20512;-78
2022/04/15 06:13:02;;;;;;;29.75;19.05;;;;;;;;;;5021666;28;20419;-78
2022/04/15 06:15:31;;;;;;;27.20;18.52;;;;;;;;;;5019839;28;20530;-79
2022/04/15 06:17:57;;;;;;;26.67;18.42;;;;;;;;;;5018734;28;21159;-79
2022/04/15 06:20:23;;;;;;;27.83;18.70;;;;;;;;;;5018847;28;20419;-78
2022/04/15 06:22:49;;;;;;;30.58;20.27;;;;;;;;;;5016065;28;20424;-78
2022/04/15 06:25:16;;;;;;;24.13;18.27;;;;;;;;;;5015752;28;20985;-77
2022/04/15 06:27:42;;;;;;;33.60;17.15;;;;;;;;;;5020417;28;20426;-79
2022/04/15 06:30:09;;;;;;;28.95;18.88;;;;;;;;;;5020173;28;20430;-77
2022/04/15 06:32:37;;;;;;;28.42;18.50;;;;;;;;;;5017747;28;20484;-79
2022/04/15 06:35:03;;;;;;;25.35;17.92;;;;;;;;;;5019878;28;20980;-78
2022/04/15 06:37:30;;;;;;;28.42;17.60;;;;;;;;;;5019259;28;20490;-78
2022/04/15 06:39:56;;;;;;;24.58;16.33;;;;;;;;;;5017285;28;20487;-78
2022/04/15 06:42:22;;;;;;;30.35;18.10;;;;;;;;;;5021541;28;20419;-78
2022/04/15 06:44:49;;;;;;;26.08;17.33;;;;;;;;;;5016487;28;20432;-78
2022/04/15 06:47:15;;;;;;;26.70;16.83;;;;;;;;;;5014034;28;20432;-78
2022/04/15 06:49:43;;;;;;;31.95;17.23;;;;;;;;;;5017517;28;20457;-80
2022/04/15 06:52:09;;;;;;;24.05;16.85;;;;;;;;;;5019839;28;20990;-79
2022/04/15 06:54:36;;;;;;;25.60;17.73;;;;;;;;;;5020198;28;20432;-79
2022/04/15 06:57:02;;;;;;;27.20;17.83;;;;;;;;;;5021106;28;20820;-79
2022/04/15 06:59:28;;;;;;;30.57;18.33;;;;;;;;;;5019069;28;20514;-79
2022/04/15 07:01:55;;;;;;;25.15;17.23;;;;;;;;;;5015626;28;20427;-79
2022/04/15 07:04:21;;;;;;;25.00;17.35;;;;;;;;;;5018127;28;20424;-81
2022/04/15 07:06:49;;;;;;;26.13;17.13;;;;;;;;;;5019267;28;20414;-78
2022/04/15 07:09:15;;;;;;;26.85;17.80;;;;;;;;;;5021155;28;20423;-80
2022/04/15 07:11:42;;;;;;;31.08;18.90;;;;;;;;;;5015478;28;20780;-79
2022/04/15 07:14:08;;;;;;;24.53;17.10;;;;;;;;;;5009504;28;20468;-80
2022/04/15 07:16:34;;;;;;;32.78;17.50;;;;;;;;;;5018480;28;20458;-79
2022/04/15 07:19:04;;;;;;;25.85;17.20;;;;;;;;;;5019788;28;20917;-79
2022/04/15 07:21:30;;;;;;;26.00;17.90;;;;;;;;;;5017804;28;20517;-79
2022/04/15 07:23:58;;;;;;;31.63;18.08;;;;;;;;;;5018526;28;20425;-79
2022/04/15 07:26:24;;;;;;;24.13;16.30;;;;;;;;;;5019026;28;20561;-79
2022/04/15 07:28:50;;;;;;;26.50;17.17;;;;;;;;;;5011022;28;20448;-79
2022/04/15 07:31:17;;;;;;;28.25;18.17;;;;;;;;;;5018992;28;20496;-81
2022/04/15 07:33:43;;;;;;;24.67;16.88;;;;;;;;;;5020271;28;20432;-81
2022/04/15 07:36:31;;;;;;;27.93;17.63;;;;;;;;;;5020012;28;20468;-80
2022/04/15 07:38:59;;;;;;;27.25;17.73;;;;;;;;;;5017787;28;20441;-79
2022/04/15 07:41:25;;;;;;;25.13;16.65;;;;;;;;;;5018693;28;20813;-79
2022/04/15 07:43:51;;;;;;;27.30;17.10;;;;;;;;;;5019319;28;20431;-79
2022/04/15 07:46:17;;;;;;;28.90;17.30;;;;;;;;;;5020004;28;20420;-79
2022/04/15 07:48:44;;;;;;;24.08;16.00;;;;;;;;;;5017171;28;20842;-79
2022/04/15 07:51:10;;;;;;;20.88;16.17;;;;;;;;;;5018327;28;20441;-79
2022/04/15 07:53:37;;;;;;;23.58;17.17;;;;;;;;;;5017313;28;20419;-79
2022/04/15 07:56:05;;;;;;;23.85;16.20;;;;;;;;;;5020152;28;20444;-79
2022/04/15 07:58:31;;;;;;;25.95;16.70;;;;;;;;;;5017494;28;20575;-78
2022/04/15 08:00:59;;;;;;;28.52;18.00;;;;;;;;;;5018108;28;20428;-79
2022/04/15 08:03:26;;;;;;;27.92;18.13;;;;;;;;;;5017528;28;20427;-79
2022/04/15 08:05:52;;;;;;;29.02;18.33;;;;;;;;;;5017494;28;20440;-79
2022/04/15 08:08:18;;;;;;;24.35;17.20;;;;;;;;;;5018125;28;20487;-79
2022/04/15 08:10:45;;;;;;;31.90;19.20;;;;;;;;;;5018592;28;20420;-77
2022/04/15 08:13:12;;;;;;;26.75;18.55;;;;;;;;;;5017186;28;20984;-79
2022/04/15 08:15:38;;;;;;;27.08;19.48;;;;;;;;;;5018515;28;20427;-79
2022/04/15 08:18:05;;;;;;;26.47;18.80;;;;;;;;;;5015959;28;20422;-78
2022/04/15 08:20:31;;;;;;;25.20;17.45;;;;;;;;;;5016777;28;20471;-79
2022/04/15 08:22:57;;;;;;;29.27;18.50;;;;;;;;;;5022842;28;20843;-79
2022/04/15 08:25:24;;;;;;;29.65;18.90;;;;;;;;;;5022269;28;20469;-78
2022/04/15 08:27:50;;;;;;;25.50;18.20;;;;;;;;;;5019968;28;20423;-80
2022/04/15 08:30:17;;;;;;;28.83;19.15;;;;;;;;;;5020924;28;20423;-79
2022/04/15 08:32:44;;;;;;;28.13;19.13;;;;;;;;;;5023264;28;20419;-80
2022/04/15 08:35:12;;;;;;;27.67;17.90;;;;;;;;;;5023052;28;20469;-77
2022/04/15 08:37:38;;;;;;;25.08;18.75;;;;;;;;;;5021316;28;20429;-79
2022/04/15 08:40:05;;;;;;;24.55;17.80;;;;;;;;;;5020291;28;20915;-79
2022/04/15 08:42:31;;;;;;;27.73;18.08;;;;;;;;;;5019645;28;20668;-80
2022/04/15 08:44:57;;;;;;;27.17;19.00;;;;;;;;;;5022481;28;20451;-79
2022/04/15 08:47:25;;;;;;;26.73;17.98;;;;;;;;;;5020110;28;20479;-79
2022/04/15 08:49:51;;;;;;;24.15;17.75;;;;;;;;;;5021929;28;20498;-78
2022/04/15 08:52:18;;;;;;;24.52;17.05;;;;;;;;;;5014812;28;20419;-81
2022/04/15 08:54:45;;;;;;;26.05;17.67;;;;;;;;;;5011338;28;20912;-79
2022/04/15 08:57:11;;;;;;;24.90;18.73;;;;;;;;;;5019183;28;20421;-82
2022/04/15 08:59:40;;;;;;;26.13;18.30;;;;;;;;;;5018455;28;20434;-81
2022/04/15 09:02:06;;;;;;;29.17;17.98;;;;;;;;;;5015966;28;20495;-79
2022/04/15 09:04:34;;;;;;;27.20;18.63;;;;;;;;;;5007027;28;20462;-81
2022/04/15 09:07:01;;;;;;;27.42;18.00;;;;;;;;;;5023300;28;20531;-80
2022/04/15 09:09:29;;;;;;;27.45;19.42;;;;;;;;;;5019909;28;20431;-78
2022/04/15 09:11:56;;;;;;;27.58;19.58;;;;;;;;;;5015192;28;20437;-79
2022/04/15 09:14:23;;;;;;;26.88;19.67;;;;;;;;;;5015861;28;20411;-80
2022/04/15 09:16:49;;;;;;;28.40;18.60;;;;;;;;;;5013143;28;20505;-80
2022/04/15 09:19:16;;;;;;;26.85;19.63;;;;;;;;;;5016327;28;20433;-79
2022/04/15 09:21:50;;;;;;;28.27;19.23;;;;;;;;;;5019880;28;20440;-79
2022/04/15 09:24:17;;;;;;;27.05;18.70;;;;;;;;;;5015972;28;20885;-79
2022/04/15 09:26:45;;;;;;;24.85;18.40;;;;;;;;;;5018628;28;20436;-77
2022/04/15 09:29:12;;;;;;;28.27;19.88;;;;;;;;;;5018246;28;20512;-80
2022/04/15 09:31:38;;;;;;;25.65;19.38;;;;;;;;;;5018442;28;20780;-78
2022/04/15 09:34:07;;;;;;;25.27;19.00;;;;;;;;;;5012425;28;20439;-79
2022/04/15 09:36:34;;;;;;;25.98;17.77;;;;;;;;;;5018235;28;20521;-79
2022/04/15 09:39:04;;;;;;;28.05;19.05;;;;;;;;;;5018351;28;20411;-80
2022/04/15 09:41:31;;;;;;;29.02;20.10;;;;;;;;;;5018081;28;20477;-79
2022/04/15 09:44:00;;;;;;;29.20;19.63;;;;;;;;;;5021695;28;21154;-80
2022/04/15 09:46:29;;;;;;;25.10;18.95;;;;;;;;;;5019935;28;20919;-82
2022/04/15 09:49:03;;;;;;;28.70;20.60;;;;;;;;;;5015582;28;20483;-79
2022/04/15 09:51:34;;;;;;;26.60;19.13;;;;;;;;;;5019275;28;20447;-78
2022/04/15 09:54:04;;;;;;;30.80;20.40;;;;;;;;;;5016834;28;20442;-79
2022/04/15 09:56:33;;;;;;;29.33;19.20;;;;;;;;;;5010399;28;20901;-79
2022/04/15 09:59:01;;;;;;;28.63;19.15;;;;;;;;;;5015868;28;20415;-78
2022/04/15 10:01:29;;;;;;;24.70;18.13;;;;;;;;;;5014890;28;20456;-80
2022/04/15 10:03:55;;;;;;;28.65;19.20;;;;;;;;;;5013723;28;20969;-80
2022/04/15 10:06:21;;;;;;;25.88;18.40;;;;;;;;;;5018624;28;20411;-80
2022/04/15 10:08:48;;;;;;;23.60;17.40;;;;;;;;;;5018851;28;20434;-79
2022/04/15 10:11:16;;;;;;;28.15;18.92;;;;;;;;;;5018789;28;20435;-79
2022/04/15 10:13:44;;;;;;;30.33;19.65;;;;;;;;;;5020231;28;20419;-81
2022/04/15 10:16:11;;;;;;;28.23;19.27;;;;;;;;;;5013918;28;20433;-78
2022/04/15 10:18:38;;;;;;;29.53;20.10;;;;;;;;;;5013910;28;20436;-77
2022/04/15 10:21:06;;;;;;;33.45;19.98;;;;;;;;;;5013492;28;20942;-78
2022/04/15 10:23:32;;;;;;;27.67;19.23;;;;;;;;;;5018374;28;20431;-78
2022/04/15 10:26:01;;;;;;;28.20;19.75;;;;;;;;;;5015700;28;20435;-77
2022/04/15 10:28:39;;;;;;;25.33;19.67;;;;;;;;;;5014291;28;20439;-79
2022/04/15 10:31:07;;;;;;;28.50;19.65;;;;;;;;;;5006302;28;20785;-77
2022/04/15 10:33:34;;;;;;;28.13;19.20;;;;;;;;;;5014314;28;20419;-80
2022/04/15 10:36:10;;;;;;;25.35;19.40;;;;;;;;;;5015562;28;20436;-77
2022/04/15 10:38:36;;;;;;;28.47;20.60;;;;;;;;;;5018965;28;20491;-78
2022/04/15 10:41:12;;;;;;;30.88;21.40;;;;;;;;;;5014826;28;20970;-77
2022/04/15 10:43:55;;;;;;;26.27;19.65;;;;;;;;;;5008303;28;20925;-79
2022/04/15 10:46:28;;;;;;;27.27;18.85;;;;;;;;;;5018652;28;20475;-78
2022/04/15 10:48:57;;;;;;;25.05;18.08;;;;;;;;;;5002887;28;20401;-76
2022/04/15 10:51:25;;;;;;;25.08;19.05;;;;;;;;;;5004005;28;20492;-77
2022/04/15 10:53:51;;;;;;;23.90;17.67;;;;;;;;;;5021893;28;20432;-78
2022/04/15 10:56:20;;;;;;;23.58;17.25;;;;;;;;;;5022586;28;20835;-77
2022/04/15 11:01:31;;;;;;;26.52;17.88;;;;;;;;;;5011044;28;20988;-76
2022/04/15 11:04:02;;;;;;;23.73;18.10;;;;;;;;;;5012929;28;20436;-77
2022/04/15 11:06:29;;;;;;;30.33;18.63;;;;;;;;;;5017525;28;20427;-77
2022/04/15 11:08:55;;;;;;;23.98;18.17;;;;;;;;;;5016500;28;20403;-77
2022/04/15 11:11:33;;;;;;;26.33;18.80;;;;;;;;;;5018330;28;20429;-77
2022/04/15 11:14:03;;;;;;;28.73;19.27;;;;;;;;;;5015159;28;20419;-78
2022/04/15 11:16:39;;;;;;;27.17;20.08;;;;;;;;;;5016068;28;20434;-76
2022/04/15 11:19:05;;;;;;;26.52;19.60;;;;;;;;;;5015425;28;20471;-76
2022/04/15 11:21:33;;;;;;;25.17;20.95;;;;;;;;;;5014587;28;20433;-77
2022/04/15 11:24:01;;;;;;;25.33;20.47;;;;;;;;;;5016889;28;20489;-77
2022/04/15 11:26:28;;;;;;;27.77;20.23;;;;;;;;;;5017764;28;20927;-77
2022/04/15 11:28:56;;;;;;;25.00;19.73;;;;;;;;;;5015916;28;20422;-77
2022/04/15 11:31:25;;;;;;;24.40;19.52;;;;;;;;;;5013649;28;20969;-76
2022/04/15 11:33:52;;;;;;;25.47;20.27;;;;;;;;;;5014827;28;20487;-77
2022/04/15 11:36:19;;;;;;;24.20;18.63;;;;;;;;;;5014201;28;20494;-78
2022/04/15 11:38:45;;;;;;;25.80;20.83;;;;;;;;;;5008636;28;20421;-76
2022/04/15 11:41:15;;;;;;;24.08;18.83;;;;;;;;;;5019349;28;20416;-77
2022/04/15 11:43:41;;;;;;;23.90;18.40;;;;;;;;;;5014697;28;20416;-77
2022/04/15 11:46:09;;;;;;;24.05;18.90;;;;;;;;;;5024513;28;20412;-77
2022/04/15 11:48:37;;;;;;;21.58;16.65;;;;;;;;;;5008130;28;20849;-77
2022/04/15 11:51:03;;;;;;;21.70;16.77;;;;;;;;;;5009570;28;20519;-76
2022/04/15 11:53:30;;;;;;;22.88;17.63;;;;;;;;;;5004707;28;20491;-77
2022/04/15 11:55:58;;;;;;;22.20;18.02;;;;;;;;;;5011483;28;20879;-77
2022/04/15 11:58:25;;;;;;;24.87;18.77;;;;;;;;;;5017555;28;20926;-77
2022/04/15 12:00:52;;;;;;;27.65;19.98;;;;;;;;;;5044005;22;20425;-80
2022/04/15 12:03:18;;;;;;;27.60;19.50;;;;;;;;;;5014902;28;20919;-82
2022/04/15 12:05:45;;;;;;;25.25;20.05;;;;;;;;;;5017134;28;20949;-82
2022/04/15 12:08:12;;;;;;;24.23;18.83;;;;;;;;;;5022526;28;20942;-81
2022/04/15 12:10:38;;;;;;;23.70;18.45;;;;;;;;;;5021122;28;20952;-82
2022/04/15 12:13:05;;;;;;;21.63;18.55;;;;;;;;;;5004059;28;20436;-82
2022/04/15 12:15:32;;;;;;;21.77;18.27;;;;;;;;;;5005064;28;20432;-82
2022/04/15 12:18:02;;;;;;;21.97;17.60;;;;;;;;;;5006153;28;20438;-82
2022/04/15 12:20:29;;;;;;;23.27;18.58;;;;;;;;;;5006011;28;20505;-82
2022/04/15 12:22:58;;;;;;;23.70;19.65;;;;;;;;;;5005706;28;20428;-82
2022/04/15 12:25:24;;;;;;;21.40;18.70;;;;;;;;;;5005869;28;20460;-83
2022/04/15 12:27:53;;;;;;;25.17;17.87;;;;;;;;;;5006703;28;20433;-82
2022/04/15 12:30:34;;;;;;;20.17;18.08;;;;;;;;;;5006522;28;20479;-83
2022/04/15 12:33:07;;;;;;;22.15;19.45;;;;;;;;;;5003962;28;20436;-82
2022/04/15 12:35:34;;;;;;;18.80;16.77;;;;;;;;;;5000310;28;20963;-83
2022/04/15 12:38:02;;;;;;;18.70;16.15;;;;;;;;;;4999502;28;20438;-80
2022/04/15 12:40:30;;;;;;;21.77;17.10;;;;;;;;;;5001583;28;20530;-82
2022/04/15 12:42:57;;;;;;;18.55;16.55;;;;;;;;;;5000886;28;20447;-82
2022/04/15 12:45:24;;;;;;;18.08;16.13;;;;;;;;;;4999665;28;20947;-82
2022/04/15 12:47:58;;;;;;;19.05;17.00;;;;;;;;;;5002455;28;20443;-82
2022/04/15 12:50:25;;;;;;;18.37;16.37;;;;;;;;;;4999685;28;20510;-81
2022/04/15 12:52:52;;;;;;;19.60;17.60;;;;;;;;;;5002264;28;20418;-82
2022/04/15 12:55:30;;;;;;;19.40;17.40;;;;;;;;;;5000463;28;20489;-82
2022/04/15 12:57:56;;;;;;;19.27;17.15;;;;;;;;;;5002248;28;20438;-82
2022/04/15 13:00:23;;;;;;;20.58;18.58;;;;;;;;;;5001124;28;20421;-81
2022/04/15 13:02:49;;;;;;;20.50;18.30;;;;;;;;;;5001908;28;20455;-83
2022/04/15 13:05:16;;;;;;;17.48;15.57;;;;;;;;;;4999149;28;20434;-83
2022/04/15 13:07:42;;;;;;;17.70;15.43;;;;;;;;;;4999995;28;20484;-83
2022/04/15 13:10:09;;;;;;;18.80;15.45;;;;;;;;;;5001913;28;20449;-83
2022/04/15 13:12:37;;;;;;;20.30;16.52;;;;;;;;;;5002686;28;20918;-83
2022/04/15 13:15:03;;;;;;;16.42;14.60;;;;;;;;;;5002039;28;20423;-83
2022/04/15 13:17:30;;;;;;;17.58;15.77;;;;;;;;;;5002271;28;20490;-83
2022/04/15 13:19:56;;;;;;;18.45;16.35;;;;;;;;;;5000591;28;20469;-83
2022/04/15 13:22:22;;;;;;;16.52;14.77;;;;;;;;;;5004037;28;20416;-83
2022/04/15 13:24:48;;;;;;;16.05;14.35;;;;;;;;;;5003115;28;20421;-84
2022/04/15 13:27:15;;;;;;;15.43;13.63;;;;;;;;;;5003327;28;20436;-83
2022/04/15 13:29:42;;;;;;;15.98;12.70;;;;;;;;;;5001702;28;20422;-83
2022/04/15 13:32:09;;;;;;;16.17;13.60;;;;;;;;;;5004457;28;20518;-83
2022/04/15 13:34:35;;;;;;;16.02;11.85;;;;;;;;;;5001621;28;20414;-83
2022/04/15 13:37:02;;;;;;;18.83;12.55;;;;;;;;;;5003730;28;20450;-84
2022/04/15 13:39:28;;;;;;;12.77;10.90;;;;;;;;;;5003564;28;20426;-83
2022/04/15 13:41:55;;;;;;;14.77;11.52;;;;;;;;;;5002527;28;20442;-83
2022/04/15 13:44:21;;;;;;;15.20;11.70;;;;;;;;;;5004261;28;20536;-83
2022/04/15 13:46:48;;;;;;;13.30;11.20;;;;;;;;;;5004144;28;20430;-82
2022/04/15 13:49:15;;;;;;;14.27;11.88;;;;;;;;;;5001488;28;20417;-83
2022/04/15 13:51:41;;;;;;;16.90;12.40;;;;;;;;;;5004176;28;20409;-83
2022/04/15 13:56:52;;;;;;;15.73;12.75;;;;;;;;;;5003488;28;20557;-81
2022/04/15 13:59:19;;;;;;;15.27;12.88;;;;;;;;;;5002111;28;21042;-83
2022/04/15 14:01:46;;;;;;;14.73;11.40;;;;;;;;;;5001385;28;20917;-82
2022/04/15 14:04:14;;;;;;;12.77;11.05;;;;;;;;;;5000462;28;20776;-83
2022/04/15 14:06:41;;;;;;;14.35;10.90;;;;;;;;;;5003675;28;20941;-83
2022/04/15 14:09:07;;;;;;;14.43;11.60;;;;;;;;;;4999841;28;20434;-83
2022/04/15 14:11:35;;;;;;;14.75;11.95;;;;;;;;;;5002235;28;20445;-82
2022/04/15 14:14:02;;;;;;;13.07;10.90;;;;;;;;;;4999823;28;20520;-83
2022/04/15 14:16:28;;;;;;;12.83;11.43;;;;;;;;;;5003917;28;20494;-83
2022/04/15 14:18:54;;;;;;;13.80;10.00;;;;;;;;;;5006246;28;20484;-83
2022/04/15 14:21:22;;;;;;;16.60;12.18;;;;;;;;;;5005523;28;20462;-83
2022/04/15 14:23:48;;;;;;;15.70;11.00;;;;;;;;;;5007645;28;20894;-82
2022/04/15 14:26:15;;;;;;;14.88;12.48;;;;;;;;;;5008299;28;20472;-83